Time,TemperatureF,DewpointF,PressureIn,WindDirection,WindDirectionDegrees,WindSpeedMPH,WindSpeedGustMPH,Humidity,HourlyPrecipIn,Conditions,Clouds,dailyrainin,SolarRadiationWatts/m^2,SoftwareType,DateUTC
2013-02-20 00:01:00,26.0,9.0,-100.00,ENE,62,11.0,14.0,46,-99.99,,,-99.99,0.000000,,2013-02-20 07:01:00,
2013-02-20 00:11:00,26.0,9.0,-100.00,ENE,62,11.0,14.0,46,-99.99,,,-99.99,0.000000,,2013-02-20 07:11:00,
2013-02-20 00:31:00,26.0,9.0,-100.00,ENE,64,13.0,14.0,47,-99.99,,,-99.99,0.000000,,2013-02-20 07:31:00,
2013-02-20 00:41:00,26.0,9.0,-100.00,ENE,63,12.0,13.0,48,-99.99,,,-99.99,0.000000,,2013-02-20 07:41:00,
2013-02-20 00:51:00,26.0,9.0,-100.00,ENE,63,12.0,13.0,48,-99.99,,,-99.99,0.000000,,2013-02-20 07:51:00,
2013-02-20 01:01:00,26.0,8.0,-100.00,ENE,64,12.0,15.0,45,-99.99,,,-99.99,0.000000,,2013-02-20 08:01:00,
2013-02-20 01:21:00,25.0,10.0,-100.00,ENE,59,7.0,10.0,52,-99.99,,,-99.99,0.010000,,2013-02-20 08:21:00,
2013-02-20 01:31:00,25.0,10.0,-100.00,ENE,59,7.0,10.0,52,-99.99,,,-99.99,0.010000,,2013-02-20 08:31:00,
2013-02-20 01:52:00,26.0,9.0,-100.00,ENE,62,10.0,11.0,47,-99.99,,,-99.99,0.000000,,2013-02-20 08:52:00,
2013-02-20 02:11:00,27.0,8.0,-100.00,ENE,66,13.0,15.0,44,-99.99,,,-99.99,0.000000,,2013-02-20 09:11:00,
2013-02-20 02:41:00,26.0,9.0,-100.00,ENE,64,11.0,13.0,48,-99.99,,,-99.99,0.000000,,2013-02-20 09:41:00,
2013-02-20 02:51:00,26.0,8.0,-100.00,ENE,60,11.0,12.0,46,-99.99,,,-99.99,0.000000,,2013-02-20 09:51:00,
2013-02-20 03:01:00,26.0,8.0,-100.00,NE,52,11.0,13.0,45,-99.99,,,-99.99,0.000000,,2013-02-20 10:01:00,
2013-02-20 03:12:00,27.0,9.0,-100.00,NE,55,13.0,13.0,45,-99.99,,,-99.99,0.010000,,2013-02-20 10:12:00,
2013-02-20 03:21:00,27.0,10.0,-100.00,NE,53,13.0,16.0,48,-99.99,,,-99.99,0.000000,,2013-02-20 10:21:00,
2013-02-20 03:31:00,27.0,12.0,-100.00,NE,50,13.0,15.0,51,-99.99,,,-99.99,0.000000,,2013-02-20 10:31:00,
2013-02-20 03:41:00,27.0,12.0,-100.00,NE,50,13.0,15.0,51,-99.99,,,-99.99,0.000000,,2013-02-20 10:41:00,
2013-02-20 03:51:00,27.0,13.0,-100.00,NE,45,14.0,15.0,55,-99.99,,,-99.99,0.010000,,2013-02-20 10:51:00,
2013-02-20 04:01:00,27.0,14.0,-100.00,NE,51,11.0,13.0,57,-99.99,,,-99.99,0.010000,,2013-02-20 11:01:00,
2013-02-20 04:11:00,27.0,14.0,-100.00,NE,40,13.0,14.0,58,-99.99,,,-99.99,0.040000,,2013-02-20 11:11:00,
2013-02-20 04:21:00,27.0,14.0,-100.00,NE,40,13.0,14.0,58,-99.99,,,-99.99,0.040000,,2013-02-20 11:21:00,
2013-02-20 04:31:00,27.0,14.0,-100.00,NE,50,11.0,13.0,58,-99.99,,,-99.99,0.020000,,2013-02-20 11:31:00,
2013-02-20 04:41:00,26.0,13.0,-100.00,ENE,60,10.0,12.0,57,-99.99,,,-99.99,0.030000,,2013-02-20 11:41:00,
2013-02-20 04:52:00,26.0,13.0,-100.00,ENE,60,10.0,12.0,57,-99.99,,,-99.99,0.030000,,2013-02-20 11:52:00,
2013-02-20 05:01:00,26.0,13.0,-100.00,ENE,60,11.0,13.0,57,-99.99,,,-99.99,0.020000,,2013-02-20 12:01:00,
2013-02-20 05:31:00,26.0,13.0,-100.00,NE,49,12.0,13.0,58,-99.99,,,-99.99,0.020000,,2013-02-20 12:31:00,
2013-02-20 05:42:00,26.0,14.0,-100.00,NE,52,11.0,12.0,59,-99.99,,,-99.99,0.010000,,2013-02-20 12:42:00,
2013-02-20 05:52:00,26.0,14.0,-100.00,NE,52,11.0,12.0,59,-99.99,,,-99.99,0.010000,,2013-02-20 12:52:00,
2013-02-20 06:01:00,26.0,14.0,-100.00,NE,48,12.0,13.0,60,-99.99,,,-99.99,0.010000,,2013-02-20 13:01:00,
2013-02-20 06:22:00,25.0,15.0,-100.00,ENE,62,10.0,11.0,65,-99.99,,,-99.99,0.010000,,2013-02-20 13:22:00,
2013-02-20 06:31:00,25.0,15.0,-100.00,ENE,62,10.0,11.0,65,-99.99,,,-99.99,0.010000,,2013-02-20 13:31:00,
2013-02-20 06:42:00,25.0,15.0,-100.00,ENE,62,10.0,11.0,65,-99.99,,,-99.99,0.010000,,2013-02-20 13:42:00,
2013-02-20 06:51:00,25.0,15.0,-100.00,ENE,62,10.0,11.0,65,-99.99,,,-99.99,0.010000,,2013-02-20 13:51:00,
2013-02-20 07:01:00,25.0,13.0,-100.00,NNE,29,14.0,16.0,60,-99.99,,,-99.99,0.030000,,2013-02-20 14:01:00,
2013-02-20 07:11:00,25.0,13.0,-100.00,NNE,29,14.0,16.0,60,-99.99,,,-99.99,0.030000,,2013-02-20 14:11:00,
2013-02-20 07:21:00,25.0,13.0,-100.00,NE,40,15.0,17.0,61,-99.99,,,-99.99,0.140000,,2013-02-20 14:21:00,
2013-02-20 07:52:00,24.0,12.0,-100.00,ENE,60,14.0,16.0,60,-99.99,,,-99.99,2.810000,,2013-02-20 14:52:00,
2013-02-20 08:01:00,24.0,12.0,-100.00,NE,55,12.0,15.0,60,-99.99,,,-99.99,16.379999,,2013-02-20 15:01:00,
2013-02-20 08:11:00,24.0,12.0,-100.00,NE,55,12.0,15.0,60,-99.99,,,-99.99,16.379999,,2013-02-20 15:11:00,
2013-02-20 08:31:00,25.0,12.0,-100.00,NE,51,11.0,15.0,56,-99.99,,,-99.99,36.040001,,2013-02-20 15:31:00,
2013-02-20 08:51:00,23.0,13.0,-100.00,ENE,64,12.0,14.0,62,-99.99,,,-99.99,55.980000,,2013-02-20 15:51:00,
2013-02-20 09:01:00,24.0,11.0,-100.00,NE,36,15.0,16.0,57,-99.99,,,-99.99,93.300003,,2013-02-20 16:01:00,
2013-02-20 09:11:00,25.0,11.0,-100.00,NE,42,15.0,16.0,56,-99.99,,,-99.99,109.500000,,2013-02-20 16:11:00,
2013-02-20 09:21:00,25.0,12.0,-100.00,NE,39,15.0,16.0,56,-99.99,,,-99.99,128.100006,,2013-02-20 16:21:00,
2013-02-20 09:32:00,25.0,12.0,-100.00,NE,39,15.0,16.0,56,-99.99,,,-99.99,128.100006,,2013-02-20 16:32:00,
2013-02-20 09:41:00,25.0,11.0,-100.00,NE,40,14.0,16.0,55,-99.99,,,-99.99,146.899994,,2013-02-20 16:41:00,
2013-02-20 10:01:00,26.0,11.0,-100.00,NE,41,13.0,15.0,52,-99.99,,,-99.99,201.699997,,2013-02-20 17:01:00,
2013-02-20 10:11:00,26.0,11.0,-100.00,NE,41,13.0,15.0,52,-99.99,,,-99.99,201.699997,,2013-02-20 17:11:00,
2013-02-20 10:32:00,26.0,11.0,-100.00,ENE,60,10.0,14.0,52,-99.99,,,-99.99,247.899994,,2013-02-20 17:32:00,
2013-02-20 11:11:00,27.0,12.0,-100.00,ENE,63,8.0,17.0,52,-99.99,,,-99.99,357.500000,,2013-02-20 18:11:00,
2013-02-20 11:21:00,27.0,12.0,-100.00,ENE,63,8.0,17.0,52,-99.99,,,-99.99,357.500000,,2013-02-20 18:21:00,
2013-02-20 11:31:00,27.0,12.0,-100.00,ENE,68,10.0,17.0,51,-99.99,,,-99.99,361.299988,,2013-02-20 18:31:00,
2013-02-20 11:41:00,28.0,12.0,-100.00,NE,55,14.0,20.0,50,-99.99,,,-99.99,371.399994,,2013-02-20 18:41:00,
2013-02-20 11:51:00,28.0,12.0,-100.00,NE,52,15.0,19.0,49,-99.99,,,-99.99,409.000000,,2013-02-20 18:51:00,
2013-02-20 12:01:00,29.0,13.0,-100.00,NE,52,13.0,19.0,51,-99.99,,,-99.99,489.200012,,2013-02-20 19:01:00,
2013-02-20 12:11:00,29.0,13.0,-100.00,ENE,70,11.0,18.0,50,-99.99,,,-99.99,542.400024,,2013-02-20 19:11:00,
2013-02-20 12:21:00,29.0,14.0,-100.00,ENE,78,11.0,19.0,51,-99.99,,,-99.99,588.400024,,2013-02-20 19:21:00,
2013-02-20 12:31:00,30.0,13.0,-100.00,ENE,59,9.0,15.0,48,-99.99,,,-99.99,589.700012,,2013-02-20 19:31:00,
2013-02-20 12:41:00,30.0,13.0,-100.00,ENE,59,9.0,15.0,48,-99.99,,,-99.99,589.700012,,2013-02-20 19:41:00,
2013-02-20 12:51:00,31.0,14.0,-100.00,ENE,75,4.0,9.0,47,-99.99,,,-99.99,575.599976,,2013-02-20 19:51:00,
2013-02-20 13:01:00,31.0,14.0,-100.00,ENE,62,6.0,11.0,47,-99.99,,,-99.99,626.099976,,2013-02-20 20:01:00,
2013-02-20 13:11:00,33.0,16.0,-100.00,NE,43,1.0,7.0,47,-99.99,,,-99.99,520.700012,,2013-02-20 20:11:00,
2013-02-20 13:21:00,34.0,15.0,-100.00,ENE,61,2.0,7.0,45,-99.99,,,-99.99,734.299988,,2013-02-20 20:21:00,
2013-02-20 13:41:00,34.0,16.0,-100.00,East,81,4.0,8.0,47,-99.99,,,-99.99,662.200012,,2013-02-20 20:41:00,
2013-02-20 13:51:00,36.0,18.0,-100.00,SW,232,6.0,9.0,47,-99.99,,,-99.99,726.599976,,2013-02-20 20:51:00,
2013-02-20 14:01:00,36.0,18.0,-100.00,SW,232,6.0,9.0,47,-99.99,,,-99.99,726.599976,,2013-02-20 21:01:00,
2013-02-20 14:21:00,32.0,21.0,-100.00,WSW,243,12.0,18.0,62,-99.99,,,-99.99,354.200012,,2013-02-20 21:21:00,
2013-02-20 14:41:00,33.0,20.0,-100.00,SW,234,12.0,16.0,59,-99.99,,,-99.99,545.400024,,2013-02-20 21:41:00,
2013-02-20 14:51:00,31.0,21.0,-100.00,WSW,242,13.0,15.0,66,-99.99,,,-99.99,519.099976,,2013-02-20 21:51:00,
2013-02-20 15:11:00,30.0,22.0,-100.00,WSW,247,13.0,16.0,72,-99.99,,,-99.99,420.100006,,2013-02-20 22:11:00,
2013-02-20 15:41:00,30.0,23.0,-100.00,West,261,12.0,16.0,74,-99.99,,,-99.99,464.000000,,2013-02-20 22:41:00,
2013-02-20 15:51:00,29.0,22.0,-100.00,WSW,251,12.0,16.0,76,-99.99,,,-99.99,376.500000,,2013-02-20 22:51:00,
2013-02-20 16:01:00,28.0,22.0,-100.00,WSW,253,15.0,18.0,76,-99.99,,,-99.99,261.200012,,2013-02-20 23:01:00,
2013-02-20 16:12:00,28.0,22.0,-100.00,WSW,247,13.0,17.0,79,-99.99,,,-99.99,192.399994,,2013-02-20 23:12:00,
2013-02-20 16:21:00,28.0,23.0,-100.00,WSW,246,11.0,18.0,79,-99.99,,,-99.99,158.199997,,2013-02-20 23:21:00,
2013-02-20 16:31:00,28.0,23.0,-100.00,WSW,246,11.0,18.0,79,-99.99,,,-99.99,158.199997,,2013-02-20 23:31:00,
2013-02-20 16:42:00,27.0,22.0,-100.00,SW,226,13.0,16.0,80,-99.99,,,-99.99,109.699997,,2013-02-20 23:42:00,
2013-02-20 16:52:00,27.0,22.0,-100.00,SW,226,13.0,16.0,80,-99.99,,,-99.99,109.699997,,2013-02-20 23:52:00,
2013-02-20 17:02:00,27.0,23.0,-100.00,SW,225,13.0,17.0,83,-99.99,,,-99.99,76.019997,,2013-02-21 00:02:00,
2013-02-20 17:11:00,26.0,24.0,-100.00,WSW,237,13.0,15.0,88,-99.99,,,-99.99,54.160000,,2013-02-21 00:11:00,
2013-02-20 17:21:00,26.0,24.0,-100.00,WSW,237,13.0,15.0,88,-99.99,,,-99.99,54.160000,,2013-02-21 00:21:00,
2013-02-20 17:31:00,26.0,23.0,-100.00,WSW,247,12.0,16.0,89,-99.99,,,-99.99,39.700001,,2013-02-21 00:31:00,
2013-02-20 17:41:00,26.0,23.0,-100.00,WSW,253,11.0,16.0,88,-99.99,,,-99.99,31.459999,,2013-02-21 00:41:00,
2013-02-20 17:52:00,26.0,23.0,-100.00,SW,235,10.0,13.0,86,-99.99,,,-99.99,20.620001,,2013-02-21 00:52:00,
2013-02-20 18:01:00,26.0,23.0,-100.00,WSW,256,12.0,14.0,86,-99.99,,,-99.99,15.710000,,2013-02-21 01:01:00,
2013-02-20 18:11:00,26.0,22.0,-100.00,WSW,249,12.0,16.0,86,-99.99,,,-99.99,12.950000,,2013-02-21 01:11:00,
2013-02-20 18:21:00,26.0,22.0,-100.00,WSW,249,12.0,16.0,86,-99.99,,,-99.99,12.950000,,2013-02-21 01:21:00,
2013-02-20 18:32:00,25.0,23.0,-100.00,WSW,247,12.0,14.0,89,-99.99,,,-99.99,3.020000,,2013-02-21 01:32:00,
2013-02-20 18:41:00,25.0,23.0,-100.00,WSW,245,12.0,14.0,90,-99.99,,,-99.99,1.080000,,2013-02-21 01:41:00,
2013-02-20 18:51:00,25.0,23.0,-100.00,WSW,246,10.0,14.0,91,-99.99,,,-99.99,0.180000,,2013-02-21 01:51:00,
2013-02-20 19:01:00,25.0,23.0,-100.00,WSW,246,11.0,14.0,91,-99.99,,,-99.99,0.010000,,2013-02-21 02:01:00,
2013-02-20 19:11:00,25.0,23.0,-100.00,WSW,246,11.0,14.0,91,-99.99,,,-99.99,0.010000,,2013-02-21 02:11:00,
2013-02-20 19:21:00,25.0,23.0,-100.00,WSW,245,12.0,13.0,92,-99.99,,,-99.99,0.000000,,2013-02-21 02:21:00,
2013-02-20 19:32:00,25.0,23.0,-100.00,WSW,245,12.0,13.0,92,-99.99,,,-99.99,0.000000,,2013-02-21 02:32:00,
2013-02-20 19:41:00,25.0,23.0,-100.00,WSW,245,12.0,13.0,92,-99.99,,,-99.99,0.000000,,2013-02-21 02:41:00,
2013-02-20 19:51:00,25.0,23.0,-100.00,WSW,245,12.0,13.0,92,-99.99,,,-99.99,0.000000,,2013-02-21 02:51:00,
2013-02-20 20:01:00,25.0,23.0,-100.00,WSW,257,11.0,15.0,92,-99.99,,,-99.99,0.000000,,2013-02-21 03:01:00,
2013-02-20 20:11:00,24.0,23.0,-100.00,West,264,10.0,14.0,92,-99.99,,,-99.99,0.000000,,2013-02-21 03:11:00,
2013-02-20 20:21:00,24.0,23.0,-100.00,West,259,10.0,16.0,93,-99.99,,,-99.99,0.000000,,2013-02-21 03:21:00,
2013-02-20 20:31:00,24.0,23.0,-100.00,West,261,10.0,16.0,93,-99.99,,,-99.99,0.000000,,2013-02-21 03:31:00,
2013-02-20 20:41:00,24.0,23.0,-100.00,West,261,10.0,16.0,93,-99.99,,,-99.99,0.000000,,2013-02-21 03:41:00,
2013-02-20 20:51:00,24.0,22.0,-100.00,West,263,9.0,13.0,94,-99.99,,,-99.99,0.000000,,2013-02-21 03:51:00,
2013-02-20 21:01:00,24.0,22.0,-100.00,West,278,7.0,9.0,93,-99.99,,,-99.99,0.000000,,2013-02-21 04:01:00,
2013-02-20 21:11:00,24.0,22.0,-100.00,West,263,6.0,11.0,94,-99.99,,,-99.99,0.000000,,2013-02-21 04:11:00,
2013-02-20 21:21:00,24.0,22.0,-100.00,West,280,7.0,10.0,94,-99.99,,,-99.99,0.000000,,2013-02-21 04:21:00,
2013-02-20 21:51:00,23.0,22.0,-100.00,West,271,9.0,12.0,93,-99.99,,,-99.99,0.000000,,2013-02-21 04:51:00,
2013-02-20 22:12:00,23.0,21.0,-100.00,West,271,6.0,10.0,93,-99.99,,,-99.99,0.000000,,2013-02-21 05:12:00,
2013-02-20 22:51:00,22.0,21.0,-100.00,West,263,9.0,13.0,93,-99.99,,,-99.99,0.000000,,2013-02-21 05:51:00,
2013-02-20 23:01:00,22.0,21.0,-100.00,West,263,9.0,13.0,93,-99.99,,,-99.99,0.000000,,2013-02-21 06:01:00,
2013-02-20 23:11:00,22.0,21.0,-100.00,WSW,254,11.0,15.0,93,-99.99,,,-99.99,0.000000,,2013-02-21 06:11:00,
2013-02-20 23:20:00,22.0,21.0,-100.00,WSW,254,11.0,15.0,93,-99.99,,,-99.99,0.000000,,2013-02-21 06:20:00,
2013-02-20 23:31:00,22.0,21.0,-100.00,WSW,253,13.0,15.0,93,-99.99,,,-99.99,0.000000,,2013-02-21 06:31:00,
2013-02-20 23:41:00,22.0,21.0,-100.00,WSW,253,13.0,15.0,93,-99.99,,,-99.99,0.000000,,2013-02-21 06:41:00,
2013-02-20 23:51:00,22.0,21.0,-100.00,WSW,251,12.0,14.0,93,-99.99,,,-99.99,0.000000,,2013-02-21 06:51:00,